Time;durP1;ratioP1;P1;durP2;ratioP2;P2;SDS_P1;SDS_P2;PMS_P1;PMS_P2;Temp;Humidity;BMP_temperature;BMP_pressure;BME280_temperature;BME280_humidity;BME280_pressure;Samples;Min_cycle;Max_cycle;Signal;HPM_P1;HPM_P2
2023/04/01 00:01:57;;;;;;;26.30;25.00;;;;;;;;;;5043585;28;20427;-82
2023/04/01 00:04:24;;;;;;;24.53;23.43;;;;;;;;;;5043174;28;20422;-82
2023/04/01 00:06:51;;;;;;;25.47;24.17;;;;;;;;;;5043267;28;20448;-82
2023/04/01 00:09:19;;;;;;;22.73;21.73;;;;;;;;;;5043163;28;20458;-82
2023/04/01 00:11:46;;;;;;;25.07;23.57;;;;;;;;;;5041476;28;20514;-82
2023/04/01 00:14:13;;;;;;;23.87;22.80;;;;;;;;;;5043090;28;20422;-82
2023/04/01 00:16:41;;;;;;;24.70;23.33;;;;;;;;;;5041533;28;20487;-83
2023/04/01 00:19:08;;;;;;;24.07;22.97;;;;;;;;;;5042068;28;20475;-82
2023/04/01 00:21:36;;;;;;;26.30;25.20;;;;;;;;;;5043269;28;20422;-82
2023/04/01 00:24:03;;;;;;;25.23;24.03;;;;;;;;;;5041783;28;20800;-82
2023/04/01 00:26:30;;;;;;;24.53;23.43;;;;;;;;;;5041300;28;20418;-82
2023/04/01 00:28:57;;;;;;;26.20;24.90;;;;;;;;;;5040341;28;20541;-82
2023/04/01 00:31:24;;;;;;;24.67;23.57;;;;;;;;;;5041474;28;20451;-82
2023/04/01 00:33:53;;;;;;;24.93;23.83;;;;;;;;;;5041379;28;20453;-82
2023/04/01 00:36:21;;;;;;;25.17;24.03;;;;;;;;;;5040534;28;20479;-82
2023/04/01 00:38:48;;;;;;;24.50;23.50;;;;;;;;;;5040831;28;20468;-82
2023/04/01 00:41:16;;;;;;;23.73;22.67;;;;;;;;;;5040975;28;20485;-82
2023/04/01 00:43:44;;;;;;;26.13;25.03;;;;;;;;;;5040914;28;20414;-82
2023/04/01 00:46:11;;;;;;;24.17;23.00;;;;;;;;;;5041763;28;20496;-81
2023/04/01 00:48:41;;;;;;;24.10;23.00;;;;;;;;;;5044295;28;21004;-81
2023/04/01 00:51:11;;;;;;;24.17;23.17;;;;;;;;;;5044031;28;20979;-82
2023/04/01 00:53:40;;;;;;;24.67;23.27;;;;;;;;;;5044219;28;20407;-82
2023/04/01 00:56:11;;;;;;;22.87;21.97;;;;;;;;;;5043858;28;20495;-82
2023/04/01 00:58:40;;;;;;;22.80;21.70;;;;;;;;;;5043486;28;20510;-82
2023/04/01 01:01:07;;;;;;;22.17;21.17;;;;;;;;;;5044044;28;20418;-82
2023/04/01 01:03:35;;;;;;;22.20;21.20;;;;;;;;;;5044234;28;20455;-81
2023/04/01 01:06:21;;;;;;;22.93;21.90;;;;;;;;;;5043280;28;20444;-82
2023/04/01 01:09:07;;;;;;;20.07;19.27;;;;;;;;;;5055059;28;20452;-81
2023/04/01 01:11:36;;;;;;;21.60;20.60;;;;;;;;;;5059002;28;20478;-81
2023/04/01 01:14:08;;;;;;;21.27;20.37;;;;;;;;;;5056601;28;20455;-82
2023/04/01 01:16:37;;;;;;;21.40;20.30;;;;;;;;;;5046117;28;20482;-82
2023/04/01 01:19:09;;;;;;;20.97;19.67;;;;;;;;;;5045941;28;20483;-82
2023/04/01 01:21:43;;;;;;;19.60;18.80;;;;;;;;;;5046678;28;20467;-82
2023/04/01 01:24:29;;;;;;;20.90;19.80;;;;;;;;;;5046405;28;20410;-82
2023/04/01 01:27:02;;;;;;;20.07;18.93;;;;;;;;;;5045978;28;20435;-82
2023/04/01 01:29:53;;;;;;;19.67;18.87;;;;;;;;;;5045232;28;20512;-82
2023/04/01 01:32:30;;;;;;;19.23;18.37;;;;;;;;;;5045493;28;20402;-82
2023/04/01 01:35:00;;;;;;;18.30;17.50;;;;;;;;;;5044869;28;20406;-82
2023/04/01 01:37:30;;;;;;;19.33;18.53;;;;;;;;;;5044295;28;20465;-81
2023/04/01 01:39:59;;;;;;;19.50;18.70;;;;;;;;;;5045109;28;20465;-82
2023/04/01 01:42:27;;;;;;;19.27;18.47;;;;;;;;;;5044562;28;20462;-82
2023/04/01 01:44:55;;;;;;;19.10;18.30;;;;;;;;;;5044738;28;20452;-82
2023/04/01 01:47:23;;;;;;;19.67;18.50;;;;;;;;;;5044022;28;20418;-82
2023/04/01 01:49:51;;;;;;;19.63;18.83;;;;;;;;;;5043209;28;20532;-84
2023/04/01 01:52:18;;;;;;;19.00;18.10;;;;;;;;;;5044113;28;20505;-82
2023/04/01 01:54:50;;;;;;;18.97;18.00;;;;;;;;;;5043802;28;20443;-82
2023/04/01 01:57:18;;;;;;;20.27;19.47;;;;;;;;;;5042641;28;20468;-82
2023/04/01 01:59:46;;;;;;;20.63;19.83;;;;;;;;;;5044206;28;20467;-81
2023/04/01 02:02:15;;;;;;;20.43;19.43;;;;;;;;;;5043879;28;20480;-82
2023/04/01 02:04:43;;;;;;;21.00;20.10;;;;;;;;;;5043184;28;20457;-82
2023/04/01 02:07:13;;;;;;;21.90;21.00;;;;;;;;;;5042457;28;20482;-82
2023/04/01 02:09:40;;;;;;;22.73;21.73;;;;;;;;;;5042741;28;20520;-82
2023/04/01 02:12:10;;;;;;;24.30;23.20;;;;;;;;;;5042801;28;20437;-81
2023/04/01 02:14:41;;;;;;;23.40;22.40;;;;;;;;;;5043290;28;20876;-81
2023/04/01 02:17:10;;;;;;;24.23;23.23;;;;;;;;;;5041800;28;20521;-81
2023/04/01 02:19:39;;;;;;;23.10;22.20;;;;;;;;;;5041742;28;20519;-81
2023/04/01 02:22:09;;;;;;;23.13;22.13;;;;;;;;;;5042228;28;20785;-81
2023/04/01 02:24:37;;;;;;;22.53;21.63;;;;;;;;;;5041977;28;20443;-82
2023/04/01 02:27:04;;;;;;;23.60;22.60;;;;;;;;;;5042314;28;20494;-81
2023/04/01 02:29:33;;;;;;;24.03;23.00;;;;;;;;;;5042240;28;20471;-81
2023/04/01 02:32:00;;;;;;;23.70;22.70;;;;;;;;;;5042576;28;20436;-81
2023/04/01 02:34:27;;;;;;;22.63;21.73;;;;;;;;;;5041321;28;20468;-81
2023/04/01 02:36:55;;;;;;;22.20;21.30;;;;;;;;;;5041496;28;20446;-81
2023/04/01 02:39:22;;;;;;;22.80;21.90;;;;;;;;;;5041469;28;20496;-81
2023/04/01 02:41:49;;;;;;;21.63;20.73;;;;;;;;;;5041479;28;20447;-81
2023/04/01 02:44:16;;;;;;;22.13;21.23;;;;;;;;;;5042317;28;20448;-82
2023/04/01 02:46:45;;;;;;;22.80;21.70;;;;;;;;;;5042084;28;20841;-82
2023/04/01 02:49:12;;;;;;;22.33;21.43;;;;;;;;;;5040942;28;20512;-80
2023/04/01 02:51:39;;;;;;;20.80;19.90;;;;;;;;;;5042001;28;20434;-81
2023/04/01 02:54:06;;;;;;;20.93;20.13;;;;;;;;;;5042261;28;20851;-81
2023/04/01 02:56:33;;;;;;;21.63;20.73;;;;;;;;;;5040627;28;20461;-81
2023/04/01 02:59:00;;;;;;;19.90;19.10;;;;;;;;;;5040698;28;20504;-80
2023/04/01 03:01:27;;;;;;;20.80;19.83;;;;;;;;;;5041458;28;20896;-81
2023/04/01 03:03:55;;;;;;;20.40;19.33;;;;;;;;;;5040971;28;20448;-81
2023/04/01 03:06:22;;;;;;;21.50;20.60;;;;;;;;;;5041483;28;20439;-81
2023/04/01 03:08:49;;;;;;;21.17;20.37;;;;;;;;;;5041457;28;20549;-81
2023/04/01 03:11:16;;;;;;;22.27;21.37;;;;;;;;;;5040490;28;20833;-81
2023/04/01 03:13:43;;;;;;;21.27;20.47;;;;;;;;;;5041334;28;20422;-81
2023/04/01 03:16:10;;;;;;;21.70;20.70;;;;;;;;;;5040665;28;20495;-82
2023/04/01 03:18:37;;;;;;;20.90;20.10;;;;;;;;;;5040392;28;20507;-82
2023/04/01 03:21:16;;;;;;;20.70;19.90;;;;;;;;;;5040113;28;20463;-81
2023/04/01 03:23:43;;;;;;;22.17;21.27;;;;;;;;;;5041276;28;20440;-82
2023/04/01 03:26:10;;;;;;;20.87;20.07;;;;;;;;;;5040649;28;20422;-81
2023/04/01 03:28:37;;;;;;;21.57;20.67;;;;;;;;;;5040007;28;20463;-81
2023/04/01 03:31:04;;;;;;;21.47;20.67;;;;;;;;;;5040428;28;20422;-82
2023/04/01 03:33:31;;;;;;;21.50;20.70;;;;;;;;;;5039706;28;20582;-82
2023/04/01 03:35:58;;;;;;;22.23;21.33;;;;;;;;;;5039793;28;20418;-82
2023/04/01 03:38:27;;;;;;;21.20;20.00;;;;;;;;;;5040753;28;20471;-81
2023/04/01 03:40:55;;;;;;;21.20;20.30;;;;;;;;;;5040693;28;20418;-81
2023/04/01 03:43:22;;;;;;;21.40;20.50;;;;;;;;;;5039872;28;20442;-82
2023/04/01 03:45:50;;;;;;;21.47;20.57;;;;;;;;;;5039302;28;20452;-81
2023/04/01 03:48:17;;;;;;;21.13;20.23;;;;;;;;;;5040533;28;20463;-81
2023/04/01 03:50:44;;;;;;;21.27;20.47;;;;;;;;;;5040197;28;20447;-82
2023/04/01 03:53:12;;;;;;;21.30;20.40;;;;;;;;;;5040653;28;20455;-81
2023/04/01 03:55:40;;;;;;;21.90;21.00;;;;;;;;;;5038712;28;20533;-81
2023/04/01 03:58:08;;;;;;;21.33;20.43;;;;;;;;;;5040101;28;20826;-81
2023/04/01 04:00:35;;;;;;;22.87;21.83;;;;;;;;;;5039573;28;20474;-81
2023/04/01 04:03:03;;;;;;;23.50;22.20;;;;;;;;;;5040003;28;20438;-82
2023/04/01 04:05:30;;;;;;;23.60;22.70;;;;;;;;;;5040080;28;20804;-81
2023/04/01 04:07:57;;;;;;;23.93;22.73;;;;;;;;;;5039877;28;20486;-82
2023/04/01 04:10:24;;;;;;;22.80;21.80;;;;;;;;;;5039199;28;20422;-81
2023/04/01 04:12:53;;;;;;;24.40;23.40;;;;;;;;;;5035284;28;20843;-82
2023/04/01 04:15:20;;;;;;;24.27;23.27;;;;;;;;;;5035846;28;20418;-81
2023/04/01 04:17:47;;;;;;;23.03;22.13;;;;;;;;;;5035018;28;20457;-81
2023/04/01 04:20:14;;;;;;;22.73;21.83;;;;;;;;;;5016677;28;20502;-82
2023/04/01 04:22:42;;;;;;;23.47;22.57;;;;;;;;;;5021031;28;20556;-81
2023/04/01 04:25:09;;;;;;;24.17;23.10;;;;;;;;;;5020974;28;20426;-82
2023/04/01 04:27:36;;;;;;;23.27;22.30;;;;;;;;;;5019861;28;20425;-82
2023/04/01 04:30:06;;;;;;;24.00;22.70;;;;;;;;;;5019485;28;20500;-82
2023/04/01 04:32:33;;;;;;;24.70;23.43;;;;;;;;;;5020458;28;20403;-81
2023/04/01 04:35:00;;;;;;;23.47;22.47;;;;;;;;;;5020159;28;20423;-82
2023/04/01 04:37:28;;;;;;;23.90;22.90;;;;;;;;;;5019161;28;20619;-81
2023/04/01 04:39:55;;;;;;;24.27;23.30;;;;;;;;;;5017853;28;20454;-81
2023/04/01 04:42:22;;;;;;;23.30;22.40;;;;;;;;;;5018112;28;20427;-82
2023/04/01 04:44:49;;;;;;;24.80;23.70;;;;;;;;;;5018349;28;20949;-82
2023/04/01 04:47:17;;;;;;;23.63;22.53;;;;;;;;;;5018045;28;20805;-82
2023/04/01 04:49:44;;;;;;;23.20;22.30;;;;;;;;;;5018452;28;20472;-82
2023/04/01 04:52:11;;;;;;;24.07;23.00;;;;;;;;;;5017780;28;20927;-82
2023/04/01 04:54:38;;;;;;;24.77;23.57;;;;;;;;;;5017986;28;20755;-82
2023/04/01 04:57:05;;;;;;;24.83;23.83;;;;;;;;;;5017694;28;20865;-82
2023/04/01 04:59:32;;;;;;;26.83;25.63;;;;;;;;;;5017365;28;21051;-82
2023/04/01 05:01:59;;;;;;;26.17;25.10;;;;;;;;;;5018033;28;20506;-82
2023/04/01 05:04:28;;;;;;;26.77;25.73;;;;;;;;;;5018230;28;20427;-82
2023/04/01 05:06:55;;;;;;;24.27;23.27;;;;;;;;;;5017712;28;20481;-82
2023/04/01 05:09:22;;;;;;;23.90;22.90;;;;;;;;;;5018005;28;20472;-82
2023/04/01 05:11:49;;;;;;;26.33;25.03;;;;;;;;;;5017683;28;20427;-82
2023/04/01 05:14:16;;;;;;;24.67;23.67;;;;;;;;;;5016947;28;20447;-82
2023/04/01 05:16:43;;;;;;;25.00;23.90;;;;;;;;;;5017136;28;20444;-80
2023/04/01 05:19:10;;;;;;;24.47;23.37;;;;;;;;;;5028873;28;20454;-80
2023/04/01 05:21:38;;;;;;;24.30;23.37;;;;;;;;;;5037271;28;20505;-80
2023/04/01 05:24:09;;;;;;;24.50;23.57;;;;;;;;;;5037177;28;20422;-79
2023/04/01 05:26:36;;;;;;;25.80;24.10;;;;;;;;;;5036777;28;20932;-80
2023/04/01 05:29:03;;;;;;;26.23;25.23;;;;;;;;;;5036945;28;20474;-80
2023/04/01 05:31:30;;;;;;;25.97;24.67;;;;;;;;;;5036583;28;20426;-80
2023/04/01 05:33:57;;;;;;;25.87;24.87;;;;;;;;;;5036619;28;20419;-80
2023/04/01 05:36:24;;;;;;;24.43;23.53;;;;;;;;;;5036740;28;20422;-80
2023/04/01 05:38:56;;;;;;;24.03;23.03;;;;;;;;;;5036326;28;20500;-79
2023/04/01 05:41:23;;;;;;;26.60;25.50;;;;;;;;;;5037058;28;20411;-79
2023/04/01 05:43:50;;;;;;;24.43;23.33;;;;;;;;;;5040724;28;20448;-79
2023/04/01 05:46:17;;;;;;;23.50;22.60;;;;;;;;;;5058519;28;20441;-79
2023/04/01 05:48:44;;;;;;;23.37;22.17;;;;;;;;;;5058757;28;20453;-80
2023/04/01 05:51:13;;;;;;;24.00;22.90;;;;;;;;;;5053790;28;20437;-80
2023/04/01 05:53:40;;;;;;;21.27;20.37;;;;;;;;;;5046468;28;20422;-80
2023/04/01 05:56:09;;;;;;;22.40;21.53;;;;;;;;;;5042419;28;20452;-80
2023/04/01 05:58:36;;;;;;;23.33;22.43;;;;;;;;;;5040034;28;20933;-80
2023/04/01 06:01:05;;;;;;;23.47;22.17;;;;;;;;;;5040573;28;20426;-80
2023/04/01 06:03:32;;;;;;;23.07;22.07;;;;;;;;;;5037815;28;20773;-79
2023/04/01 06:06:00;;;;;;;21.40;20.60;;;;;;;;;;5036129;28;20426;-80
2023/04/01 06:08:28;;;;;;;20.97;20.17;;;;;;;;;;5036262;28;20471;-80
2023/04/01 06:11:00;;;;;;;21.83;21.03;;;;;;;;;;5035388;28;20500;-79
2023/04/01 06:13:36;;;;;;;21.50;20.70;;;;;;;;;;5036137;28;20458;-79
2023/04/01 06:16:09;;;;;;;22.07;21.07;;;;;;;;;;5035838;28;20443;-80
2023/04/01 06:18:54;;;;;;;21.97;21.03;;;;;;;;;;5035454;28;20491;-80
2023/04/01 06:21:39;;;;;;;19.97;19.27;;;;;;;;;;5036269;28;20765;-80
2023/04/01 06:24:13;;;;;;;20.20;19.43;;;;;;;;;;5035379;28;20447;-79
2023/04/01 06:26:44;;;;;;;21.30;20.50;;;;;;;;;;5035608;28;20513;-79
2023/04/01 06:29:29;;;;;;;21.17;20.37;;;;;;;;;;5035880;28;20938;-79
2023/04/01 06:32:08;;;;;;;24.07;23.13;;;;;;;;;;5036303;28;20452;-80
2023/04/01 06:34:44;;;;;;;21.90;21.10;;;;;;;;;;5036835;28;20436;-80
2023/04/01 06:37:21;;;;;;;22.13;21.33;;;;;;;;;;5035286;28;21058;-80
2023/04/01 06:39:52;;;;;;;23.27;22.37;;;;;;;;;;5036283;28;20511;-80
2023/04/01 06:42:31;;;;;;;23.30;22.40;;;;;;;;;;5036142;28;20436;-79
2023/04/01 06:45:05;;;;;;;23.50;22.60;;;;;;;;;;5036076;28;20432;-79
2023/04/01 06:47:39;;;;;;;23.77;22.87;;;;;;;;;;5035153;28;20832;-80
2023/04/01 06:50:11;;;;;;;24.33;23.43;;;;;;;;;;5036113;28;20906;-80
2023/04/01 06:52:42;;;;;;;25.63;24.53;;;;;;;;;;5036647;28;20430;-80
2023/04/01 06:55:18;;;;;;;25.87;24.77;;;;;;;;;;5036182;28;20546;-79
2023/04/01 06:57:48;;;;;;;27.13;25.93;;;;;;;;;;5034523;28;20458;-79
2023/04/01 07:00:16;;;;;;;27.63;26.43;;;;;;;;;;5036315;28;20473;-79
2023/04/01 07:02:46;;;;;;;26.90;25.80;;;;;;;;;;5036242;28;20498;-79
2023/04/01 07:05:15;;;;;;;28.47;27.17;;;;;;;;;;5037146;28;20480;-80
2023/04/01 07:07:44;;;;;;;28.60;27.40;;;;;;;;;;5035323;28;20486;-79
2023/04/01 07:10:14;;;;;;;27.93;26.63;;;;;;;;;;5037446;28;20446;-80
2023/04/01 07:12:44;;;;;;;26.10;24.97;;;;;;;;;;5036695;28;20442;-80
2023/04/01 07:15:16;;;;;;;31.37;29.97;;;;;;;;;;5036329;28;20452;-80
2023/04/01 07:17:45;;;;;;;27.87;26.77;;;;;;;;;;5035409;28;20500;-79
2023/04/01 07:20:15;;;;;;;26.20;25.20;;;;;;;;;;5035244;28;20471;-79
2023/04/01 07:22:44;;;;;;;27.07;25.97;;;;;;;;;;5036041;28;20512;-80
2023/04/01 07:25:13;;;;;;;26.90;25.80;;;;;;;;;;5036779;28;20489;-80
2023/04/01 07:27:41;;;;;;;28.13;26.93;;;;;;;;;;5035144;28;20422;-79
2023/04/01 07:30:14;;;;;;;31.23;29.77;;;;;;;;;;5035376;28;20471;-79
2023/04/01 07:32:43;;;;;;;28.37;27.07;;;;;;;;;;5036311;28;20418;-80
2023/04/01 07:35:15;;;;;;;27.50;26.40;;;;;;;;;;5036066;28;20443;-80
2023/04/01 07:37:46;;;;;;;27.50;26.40;;;;;;;;;;5035473;28;20964;-80
2023/04/01 07:40:18;;;;;;;27.93;26.63;;;;;;;;;;5035962;28;20456;-80
2023/04/01 07:42:54;;;;;;;26.90;25.67;;;;;;;;;;5036043;28;20436;-80
2023/04/01 07:45:25;;;;;;;27.17;25.97;;;;;;;;;;5036316;28;20422;-80
2023/04/01 07:47:58;;;;;;;27.93;26.33;;;;;;;;;;5035339;28;20763;-80
2023/04/01 07:50:28;;;;;;;29.40;28.10;;;;;;;;;;5036144;28;20436;-80
2023/04/01 07:53:00;;;;;;;27.70;26.50;;;;;;;;;;5036469;28;20432;-80
2023/04/01 07:55:31;;;;;;;27.77;26.57;;;;;;;;;;5034925;28;20443;-80
2023/04/01 07:58:00;;;;;;;27.37;26.27;;;;;;;;;;5035930;28;20878;-80
2023/04/01 08:00:30;;;;;;;25.47;24.47;;;;;;;;;;5035090;28;20468;-80
2023/04/01 08:03:06;;;;;;;26.10;25.00;;;;;;;;;;5036038;28;20866;-80
2023/04/01 08:05:41;;;;;;;25.87;24.80;;;;;;;;;;5035867;28;20466;-80
2023/04/01 08:08:13;;;;;;;25.90;24.80;;;;;;;;;;5036220;28;20467;-80
2023/04/01 08:10:45;;;;;;;24.50;23.50;;;;;;;;;;5035252;28;20446;-80
2023/04/01 08:13:16;;;;;;;24.83;23.70;;;;;;;;;;5036318;28;20410;-80
2023/04/01 08:15:48;;;;;;;25.90;24.80;;;;;;;;;;5035958;28;20509;-80
2023/04/01 08:18:20;;;;;;;24.50;23.50;;;;;;;;;;5035954;28;20457;-80
2023/04/01 08:20:49;;;;;;;27.53;26.23;;;;;;;;;;5036645;28;20407;-80
2023/04/01 08:23:18;;;;;;;27.50;26.20;;;;;;;;;;5036620;28;20426;-80
2023/04/01 08:25:47;;;;;;;26.87;25.77;;;;;;;;;;5035440;28;20426;-80
2023/04/01 08:28:18;;;;;;;29.30;28.00;;;;;;;;;;5037622;28;20459;-81
2023/04/01 08:30:49;;;;;;;26.90;25.80;;;;;;;;;;5044657;28;21010;-81
2023/04/01 08:33:18;;;;;;;27.27;26.07;;;;;;;;;;5044302;28;20498;-80
2023/04/01 08:35:51;;;;;;;25.33;24.33;;;;;;;;;;5041947;28;20413;-80
2023/04/01 08:38:20;;;;;;;25.00;24.00;;;;;;;;;;5041384;28;20458;-81
2023/04/01 08:40:58;;;;;;;25.47;24.27;;;;;;;;;;5041927;28;20435;-81
2023/04/01 08:43:53;;;;;;;24.90;23.90;;;;;;;;;;5043354;28;20509;-81
2023/04/01 08:46:28;;;;;;;26.67;25.40;;;;;;;;;;4995231;28;20505;-85
2023/04/01 08:49:03;;;;;;;26.40;25.20;;;;;;;;;;5043092;28;20483;-80
2023/04/01 08:51:43;;;;;;;25.83;24.63;;;;;;;;;;5042857;28;20431;-80
2023/04/01 08:54:29;;;;;;;25.67;24.57;;;;;;;;;;5042537;28;21006;-81
2023/04/01 08:57:00;;;;;;;26.40;25.23;;;;;;;;;;5043636;28;20465;-80
2023/04/01 08:59:44;;;;;;;26.97;25.87;;;;;;;;;;5042194;28;20558;-80
2023/04/01 09:02:29;;;;;;;27.50;26.13;;;;;;;;;;5043058;28;20523;-79
2023/04/01 09:05:06;;;;;;;26.60;25.40;;;;;;;;;;5042540;28;20445;-81
2023/04/01 09:07:41;;;;;;;25.43;24.33;;;;;;;;;;5044882;28;20458;-81
2023/04/01 09:10:25;;;;;;;27.50;26.40;;;;;;;;;;5046703;28;20451;-80
2023/04/01 09:12:59;;;;;;;25.03;23.83;;;;;;;;;;5047223;28;20833;-80
2023/04/01 09:15:39;;;;;;;25.23;24.23;;;;;;;;;;5046775;28;20410;-79
2023/04/01 09:18:14;;;;;;;23.23;22.23;;;;;;;;;;5047267;28;20462;-80
2023/04/01 09:20:47;;;;;;;23.13;22.13;;;;;;;;;;5046575;28;20447;-80
2023/04/01 09:23:29;;;;;;;23.17;22.07;;;;;;;;;;5045717;28;20922;-80
2023/04/01 09:26:02;;;;;;;23.00;22.00;;;;;;;;;;5045024;28;20544;-80
2023/04/01 09:28:29;;;;;;;23.30;22.27;;;;;;;;;;5046873;28;20475;-80
2023/04/01 09:31:09;;;;;;;23.40;22.40;;;;;;;;;;5046444;28;20450;-80
2023/04/01 09:33:56;;;;;;;23.50;22.50;;;;;;;;;;5045673;28;20434;-81
2023/04/01 09:36:28;;;;;;;21.30;20.40;;;;;;;;;;5041293;28;20452;-80
2023/04/01 09:39:00;;;;;;;21.60;20.70;;;;;;;;;;5042594;28;20488;-80
2023/04/01 09:41:31;;;;;;;22.37;21.47;;;;;;;;;;5044484;28;20458;-80
2023/04/01 09:44:03;;;;;;;22.90;21.90;;;;;;;;;;5042694;28;20485;-79
2023/04/01 09:46:37;;;;;;;22.50;21.60;;;;;;;;;;5040838;28;20507;-79
2023/04/01 09:49:21;;;;;;;23.10;22.10;;;;;;;;;;5041846;28;20490;-80
2023/04/01 09:51:55;;;;;;;25.10;24.00;;;;;;;;;;5041485;28;20883;-80
2023/04/01 09:54:37;;;;;;;24.00;23.00;;;;;;;;;;5042693;28;20758;-80
2023/04/01 09:57:25;;;;;;;22.60;21.70;;;;;;;;;;5041191;28;20445;-80
2023/04/01 10:00:05;;;;;;;25.73;24.63;;;;;;;;;;5041389;28;20516;-80
2023/04/01 10:02:52;;;;;;;25.13;24.03;;;;;;;;;;5042218;28;20500;-80
2023/04/01 10:05:33;;;;;;;25.10;24.00;;;;;;;;;;5042774;28;20418;-80
2023/04/01 10:08:19;;;;;;;24.70;23.70;;;;;;;;;;5041344;28;20958;-80
2023/04/01 10:11:00;;;;;;;23.57;22.57;;;;;;;;;;5041180;28;20909;-80
2023/04/01 10:13:48;;;;;;;23.83;22.73;;;;;;;;;;5041813;28;20447;-80
2023/04/01 10:16:33;;;;;;;24.63;23.53;;;;;;;;;;5040962;28;20464;-80
2023/04/01 10:19:12;;;;;;;25.30;24.20;;;;;;;;;;5039173;28;21012;-80
2023/04/01 10:22:01;;;;;;;24.50;23.50;;;;;;;;;;5039932;28;20512;-80
2023/04/01 10:24:49;;;;;;;25.23;24.00;;;;;;;;;;5056252;28;20442;-79
2023/04/01 10:27:31;;;;;;;24.50;23.40;;;;;;;;;;5057686;28;20416;-79
2023/04/01 10:30:06;;;;;;;26.03;24.93;;;;;;;;;;5053509;28;20505;-80
2023/04/01 10:32:56;;;;;;;24.70;23.60;;;;;;;;;;5046802;28;20871;-81
2023/04/01 10:35:30;;;;;;;26.60;25.40;;;;;;;;;;5045951;28;20406;-81
2023/04/01 10:38:16;;;;;;;24.60;23.60;;;;;;;;;;5045218;28;20471;-80
2023/04/01 10:40:59;;;;;;;27.80;26.70;;;;;;;;;;5045333;28;20446;-80
2023/04/01 10:43:56;;;;;;;27.83;26.63;;;;;;;;;;5043717;28;20445;-80
2023/04/01 10:46:33;;;;;;;25.63;24.53;;;;;;;;;;5043349;28;20414;-80
2023/04/01 10:49:12;;;;;;;27.87;26.70;;;;;;;;;;5043631;28;20461;-80
2023/04/01 10:52:00;;;;;;;28.40;27.30;;;;;;;;;;5042147;28;20414;-80
2023/04/01 10:54:41;;;;;;;30.03;28.73;;;;;;;;;;5017456;28;20542;-80
2023/04/01 10:57:14;;;;;;;29.93;28.63;;;;;;;;;;5042259;28;20466;-80
2023/04/01 11:00:02;;;;;;;27.57;26.47;;;;;;;;;;5041454;28;21002;-85
2023/04/01 11:02:46;;;;;;;27.87;26.67;;;;;;;;;;5041893;28;20436;-81
2023/04/01 11:05:34;;;;;;;26.73;25.53;;;;;;;;;;5042614;28;20418;-80
2023/04/01 11:08:08;;;;;;;25.37;24.27;;;;;;;;;;5040161;28;20471;-80
2023/04/01 11:10:58;;;;;;;24.63;23.53;;;;;;;;;;5038784;28;20423;-80
2023/04/01 11:13:35;;;;;;;26.77;25.43;;;;;;;;;;5038559;28;20520;-80
2023/04/01 11:16:23;;;;;;;24.80;23.70;;;;;;;;;;5037381;28;20410;-80
2023/04/01 11:19:16;;;;;;;25.57;24.57;;;;;;;;;;5038504;28;20537;-81
2023/04/01 11:22:02;;;;;;;24.20;23.20;;;;;;;;;;5038446;28;20422;-80
2023/04/01 11:24:37;;;;;;;24.60;23.60;;;;;;;;;;5038465;28;20475;-80
2023/04/01 11:27:12;;;;;;;22.50;21.60;;;;;;;;;;5038156;28;20414;-80
2023/04/01 11:29:49;;;;;;;21.50;20.60;;;;;;;;;;5038429;28;20503;-80
2023/04/01 11:32:21;;;;;;;22.10;21.20;;;;;;;;;;5039002;28;20501;-80
2023/04/01 11:34:58;;;;;;;20.97;20.07;;;;;;;;;;5038384;28;20450;-80
2023/04/01 11:37:31;;;;;;;20.30;19.50;;;;;;;;;;5038683;28;20410;-80
2023/04/01 11:40:03;;;;;;;21.07;20.23;;;;;;;;;;5038469;28;20461;-80
2023/04/01 11:42:36;;;;;;;21.80;20.77;;;;;;;;;;5039505;28;20817;-80
2023/04/01 11:45:12;;;;;;;21.87;20.97;;;;;;;;;;5039031;28;20869;-81
2023/04/01 11:47:57;;;;;;;22.70;21.80;;;;;;;;;;5038982;28;20431;-80
2023/04/01 11:50:29;;;;;;;21.20;20.30;;;;;;;;;;5039301;28;20855;-80
2023/04/01 11:53:07;;;;;;;20.40;19.57;;;;;;;;;;5038507;28;20463;-81
2023/04/01 11:55:40;;;;;;;22.37;21.47;;;;;;;;;;5039277;28;20428;-80
2023/04/01 11:58:22;;;;;;;23.13;22.20;;;;;;;;;;5040402;28;20885;-80
2023/04/01 12:00:55;;;;;;;21.70;20.80;;;;;;;;;;5029887;28;20590;-80
2023/04/01 12:03:31;;;;;;;21.60;20.70;;;;;;;;;;5038957;28;20536;-80
2023/04/01 12:06:04;;;;;;;20.37;19.47;;;;;;;;;;5038424;28;20485;-80
2023/04/01 12:08:38;;;;;;;20.47;19.57;;;;;;;;;;5039290;28;20438;-80
2023/04/01 12:11:09;;;;;;;21.30;20.40;;;;;;;;;;5037953;28;20398;-85
2023/04/01 12:13:40;;;;;;;22.10;21.10;;;;;;;;;;5039179;28;20436;-80
2023/04/01 12:16:15;;;;;;;22.00;21.10;;;;;;;;;;5039587;28;20534;-80
2023/04/01 12:18:44;;;;;;;22.10;21.00;;;;;;;;;;5037456;28;20483;-79
2023/04/01 12:21:19;;;;;;;21.63;20.73;;;;;;;;;;5038350;28;20826;-80
2023/04/01 12:23:54;;;;;;;23.07;21.97;;;;;;;;;;5038882;28;20399;-82
2023/04/01 12:26:27;;;;;;;21.00;20.10;;;;;;;;;;5038362;28;20402;-80
2023/04/01 12:29:05;;;;;;;21.47;20.47;;;;;;;;;;5038213;28;20474;-80
2023/04/01 12:31:36;;;;;;;20.03;18.93;;;;;;;;;;5037677;28;20443;-79
2023/04/01 12:34:22;;;;;;;19.43;18.53;;;;;;;;;;5037899;28;20438;-79
2023/04/01 12:36:58;;;;;;;21.13;20.13;;;;;;;;;;5038162;28;20440;-80
2023/04/01 12:39:34;;;;;;;21.13;20.13;;;;;;;;;;5038756;28;20582;-80
2023/04/01 12:42:06;;;;;;;20.27;19.47;;;;;;;;;;5041607;28;20510;-80
2023/04/01 12:44:45;;;;;;;21.30;20.30;;;;;;;;;;5043992;28;20843;-80
2023/04/01 12:47:19;;;;;;;19.33;18.53;;;;;;;;;;5045301;28;20395;-81
2023/04/01 12:49:57;;;;;;;21.37;20.47;;;;;;;;;;5048595;28;20437;-80
2023/04/01 12:52:27;;;;;;;20.23;19.43;;;;;;;;;;5048410;28;20451;-81
2023/04/01 12:55:03;;;;;;;20.70;19.90;;;;;;;;;;5047906;28;20443;-80
2023/04/01 12:57:40;;;;;;;21.23;20.33;;;;;;;;;;5046365;28;20870;-80
2023/04/01 13:00:22;;;;;;;22.20;21.13;;;;;;;;;;5047389;28;20456;-80
2023/04/01 13:02:59;;;;;;;23.87;22.87;;;;;;;;;;5045165;28;20455;-80
2023/04/01 13:05:34;;;;;;;23.37;22.47;;;;;;;;;;5046853;28;20449;-80
2023/04/01 13:08:09;;;;;;;21.37;20.57;;;;;;;;;;5046669;28;21005;-80
2023/04/01 13:10:44;;;;;;;22.10;21.20;;;;;;;;;;5045814;28;20892;-80
2023/04/01 13:13:26;;;;;;;21.80;20.90;;;;;;;;;;5045745;28;20398;-80
2023/04/01 13:15:53;;;;;;;21.73;20.83;;;;;;;;;;5043813;28;20942;-80
2023/04/01 13:18:26;;;;;;;20.47;19.67;;;;;;;;;;5045649;28;20487;-80
2023/04/01 13:21:00;;;;;;;22.90;21.90;;;;;;;;;;5045014;28;20487;-80
2023/04/01 13:23:36;;;;;;;23.33;22.43;;;;;;;;;;5045233;28;20422;-80
2023/04/01 13:26:07;;;;;;;25.53;24.33;;;;;;;;;;5044128;28;20455;-80
2023/04/01 13:28:38;;;;;;;25.80;24.70;;;;;;;;;;5045000;28;20438;-80
2023/04/01 13:31:10;;;;;;;23.37;22.47;;;;;;;;;;5045048;28;20924;-80
2023/04/01 13:33:42;;;;;;;23.80;22.80;;;;;;;;;;5045173;28;20497;-79
2023/04/01 13:36:15;;;;;;;24.60;23.60;;;;;;;;;;5046415;28;20493;-80
2023/04/01 13:39:03;;;;;;;24.63;23.63;;;;;;;;;;5044727;28;20441;-80
2023/04/01 13:41:38;;;;;;;24.60;23.60;;;;;;;;;;5040305;28;20430;-80
2023/04/01 13:44:09;;;;;;;26.70;25.60;;;;;;;;;;5042827;28;20501;-80
2023/04/01 13:47:01;;;;;;;27.13;25.87;;;;;;;;;;5043357;28;20436;-80
2023/04/01 13:49:43;;;;;;;24.03;23.03;;;;;;;;;;5043287;28;20510;-80
2023/04/01 13:52:25;;;;;;;25.40;24.40;;;;;;;;;;5034026;28;20474;-80
2023/04/01 13:55:00;;;;;;;23.17;21.97;;;;;;;;;;5041162;28;20521;-80
2023/04/01 13:57:41;;;;;;;23.63;22.63;;;;;;;;;;5042753;28;20449;-80
2023/04/01 14:00:18;;;;;;;32.77;30.73;;;;;;;;;;5041738;28;20454;-80
2023/04/01 14:02:50;;;;;;;25.27;24.07;;;;;;;;;;5041443;28;20936;-80
2023/04/01 14:05:31;;;;;;;30.27;28.57;;;;;;;;;;5042287;28;20440;-80
2023/04/01 14:08:02;;;;;;;28.17;26.67;;;;;;;;;;5041526;28;20471;-80
2023/04/01 14:10:33;;;;;;;26.37;24.87;;;;;;;;;;5041344;28;20414;-80
2023/04/01 14:13:05;;;;;;;27.53;26.20;;;;;;;;;;5041789;28;20916;-80
2023/04/01 14:15:43;;;;;;;28.00;26.70;;;;;;;;;;5040916;28;20813;-79
2023/04/01 14:18:32;;;;;;;30.20;28.20;;;;;;;;;;5041154;28;20476;-80
2023/04/01 14:21:06;;;;;;;28.13;26.80;;;;;;;;;;5040708;28;20442;-80
2023/04/01 14:23:40;;;;;;;26.90;25.33;;;;;;;;;;5041351;28;20826;-80
2023/04/01 14:26:26;;;;;;;25.50;24.50;;;;;;;;;;5041024;28;20860;-80
2023/04/01 14:29:00;;;;;;;25.73;24.60;;;;;;;;;;5043357;28;20443;-80
2023/04/01 14:31:36;;;;;;;26.33;24.83;;;;;;;;;;5045459;28;20448;-80
2023/04/01 14:34:08;;;;;;;25.73;24.63;;;;;;;;;;5045141;28;20484;-80
2023/04/01 14:36:54;;;;;;;27.10;25.67;;;;;;;;;;5045388;28;20914;-80
2023/04/01 14:39:31;;;;;;;26.87;25.60;;;;;;;;;;5042228;28;20515;-83
2023/04/01 14:42:05;;;;;;;25.60;24.40;;;;;;;;;;5044515;28;20530;-80
2023/04/01 14:44:44;;;;;;;26.30;25.00;;;;;;;;;;5043049;28;20436;-81
2023/04/01 14:47:26;;;;;;;27.43;26.13;;;;;;;;;;5043538;28;20902;-80
2023/04/01 14:49:55;;;;;;;28.13;26.83;;;;;;;;;;5045538;28;20479;-80